Time;durP1;ratioP1;P1;durP2;ratioP2;P2;SDS_P1;SDS_P2;PMS_P1;PMS_P2;Temp;Humidity;BMP_temperature;BMP_pressure;BME280_temperature;BME280_humidity;BME280_pressure;Samples;Min_cycle;Max_cycle;Signal;HPM_P1;HPM_P2
2023/04/11 00:01:01;;;;;;;10.67;2.83;;;8.90;99.90;;;;;;5027729;28;20675;-84
2023/04/11 00:03:29;;;;;;;11.10;2.20;;;8.90;99.90;;;;;;5026723;28;20321;-84
2023/04/11 00:05:56;;;;;;;11.00;2.20;;;8.80;99.90;;;;;;5024797;28;20552;-85
2023/04/11 00:08:23;;;;;;;11.70;2.70;;;8.80;99.90;;;;;;5027706;28;20208;-85
2023/04/11 00:10:50;;;;;;;9.27;3.20;;;8.70;99.90;;;;;;5024720;28;20241;-83
2023/04/11 00:13:19;;;;;;;8.63;2.60;;;8.70;99.90;;;;;;5031651;28;20236;-83
2023/04/11 00:15:46;;;;;;;8.53;2.90;;;8.60;99.90;;;;;;5030891;28;20205;-85
2023/04/11 00:18:13;;;;;;;6.90;2.60;;;8.60;99.90;;;;;;5019413;28;20248;-84
2023/04/11 00:20:40;;;;;;;13.47;2.63;;;8.60;99.90;;;;;;5043440;28;20254;-84
2023/04/11 00:23:07;;;;;;;13.43;3.07;;;8.50;99.90;;;;;;5044402;28;20201;-84
2023/04/11 00:25:36;;;;;;;13.87;3.77;;;8.40;99.90;;;;;;5032381;28;20560;-84
2023/04/11 00:28:06;;;;;;;10.33;2.93;;;8.40;99.90;;;;;;5033019;28;20244;-85
2023/04/11 00:30:35;;;;;;;17.20;3.63;;;8.40;99.90;;;;;;5047737;28;20259;-87
2023/04/11 00:33:03;;;;;;;15.23;3.83;;;8.40;99.90;;;;;;5043289;28;20409;-84
2023/04/11 00:35:33;;;;;;;8.37;3.10;;;8.40;99.90;;;;;;5035911;28;20204;-84
2023/04/11 00:38:01;;;;;;;13.70;3.90;;;8.40;99.90;;;;;;5036299;28;20702;-85
2023/04/11 00:40:28;;;;;;;13.47;3.30;;;8.30;99.90;;;;;;5017763;28;20220;-84
2023/04/11 00:42:56;;;;;;;11.73;3.80;;;8.40;99.90;;;;;;5046768;28;20208;-82
2023/04/11 00:45:23;;;;;;;13.87;3.50;;;8.40;99.90;;;;;;5035391;28;20617;-84
2023/04/11 00:47:50;;;;;;;19.10;3.93;;;8.30;99.90;;;;;;5035508;28;20224;-86
2023/04/11 00:50:23;;;;;;;17.33;4.10;;;8.30;99.90;;;;;;5024835;28;20213;-85
2023/04/11 00:52:55;;;;;;;21.77;4.60;;;8.30;99.90;;;;;;5021058;28;20215;-85
2023/04/11 00:55:22;;;;;;;23.80;5.13;;;8.30;99.90;;;;;;5037968;28;20772;-86
2023/04/11 00:57:52;;;;;;;26.20;5.30;;;8.30;99.90;;;;;;5029358;28;20207;-85
2023/04/11 01:00:19;;;;;;;24.37;5.17;;;8.20;99.90;;;;;;5034779;28;20226;-88
2023/04/11 01:02:46;;;;;;;25.93;4.97;;;8.30;99.90;;;;;;5025691;28;20271;-85
2023/04/11 01:05:15;;;;;;;35.40;4.90;;;8.30;99.90;;;;;;5023906;28;20204;-83
2023/04/11 01:07:50;;;;;;;29.93;6.07;;;8.30;99.90;;;;;;5047499;28;20230;-86
2023/04/11 01:10:18;;;;;;;31.13;5.97;;;8.40;99.90;;;;;;5020991;28;20259;-87
2023/04/11 01:12:45;;;;;;;29.77;5.23;;;8.50;99.90;;;;;;5029094;28;20294;-85
2023/04/11 01:15:12;;;;;;;33.70;4.90;;;8.30;99.90;;;;;;5051215;28;20222;-86
2023/04/11 01:17:42;;;;;;;25.73;5.57;;;8.30;99.90;;;;;;5050350;28;20257;-86
2023/04/11 01:20:10;;;;;;;24.87;5.23;;;8.40;99.90;;;;;;5042402;28;20228;-86
2023/04/11 01:22:39;;;;;;;30.77;6.00;;;8.40;99.90;;;;;;5052847;28;20215;-86
2023/04/11 01:25:06;;;;;;;34.60;6.03;;;8.40;99.90;;;;;;5040582;28;20637;-87
2023/04/11 01:27:34;;;;;;;23.13;4.97;;;8.40;99.90;;;;;;5037103;28;20264;-85
2023/04/11 01:30:04;;;;;;;33.17;6.57;;;8.40;99.90;;;;;;5054671;28;20208;-86
2023/04/11 01:32:32;;;;;;;31.93;5.70;;;8.40;99.90;;;;;;5043078;28;20238;-85
2023/04/11 01:35:01;;;;;;;28.73;5.63;;;8.50;99.90;;;;;;5031927;28;20208;-84
2023/04/11 01:37:28;;;;;;;26.60;5.33;;;8.50;99.90;;;;;;5030173;28;20745;-85
2023/04/11 01:39:56;;;;;;;29.20;6.00;;;8.60;99.90;;;;;;5034227;28;20259;-87
2023/04/11 01:42:24;;;;;;;33.40;6.70;;;8.50;99.90;;;;;;5050260;28;20275;-84
2023/04/11 01:44:55;;;;;;;39.47;6.83;;;8.60;99.90;;;;;;5039457;28;20273;-85
2023/04/11 01:47:22;;;;;;;36.83;6.97;;;8.60;99.90;;;;;;5045750;28;20250;-86
2023/04/11 01:49:54;;;;;;;43.97;7.97;;;8.60;99.90;;;;;;5047064;28;20231;-85
2023/04/11 01:52:22;;;;;;;39.77;5.60;;;8.60;99.90;;;;;;5037568;28;20207;-84
2023/04/11 01:54:49;;;;;;;34.07;6.63;;;8.70;99.90;;;;;;5034974;28;20210;-85
2023/04/11 01:57:16;;;;;;;36.47;6.40;;;8.50;99.90;;;;;;5031101;28;20300;-84
2023/04/11 01:59:44;;;;;;;40.77;6.83;;;8.70;99.90;;;;;;5046717;28;20771;-84
2023/04/11 02:02:11;;;;;;;35.53;6.40;;;8.70;99.90;;;;;;5030499;28;20212;-84
2023/04/11 02:04:38;;;;;;;31.07;7.17;;;8.80;99.90;;;;;;5028751;28;20246;-84
2023/04/11 02:07:06;;;;;;;22.57;7.07;;;8.90;99.90;;;;;;5026630;28;20295;-86
2023/04/11 02:09:32;;;;;;;28.53;6.27;;;9.00;99.90;;;;;;5026732;28;20253;-85
2023/04/11 02:11:59;;;;;;;29.83;6.50;;;8.90;99.90;;;;;;5030843;28;20387;-84
2023/04/11 02:14:37;;;;;;;33.53;5.47;;;8.90;99.90;;;;;;5042894;28;20857;-82
2023/04/11 02:17:05;;;;;;;27.63;7.40;;;8.90;99.90;;;;;;5041025;28;20254;-86
2023/04/11 02:19:33;;;;;;;21.07;4.77;;;9.00;99.90;;;;;;5036144;28;20252;-86
2023/04/11 02:22:00;;;;;;;32.93;6.80;;;8.90;99.90;;;;;;5039732;28;20826;-84
2023/04/11 02:24:27;;;;;;;40.90;7.50;;;8.90;99.90;;;;;;5024200;28;20236;-85
2023/04/11 02:26:56;;;;;;;31.73;6.27;;;8.80;99.90;;;;;;5024915;28;20280;-84
2023/04/11 02:29:22;;;;;;;27.33;5.13;;;8.80;99.90;;;;;;5043626;28;20307;-86
2023/04/11 02:31:50;;;;;;;24.27;4.87;;;8.80;99.90;;;;;;5032026;28;20208;-83
2023/04/11 02:34:17;;;;;;;32.53;5.10;;;8.80;99.90;;;;;;5027450;28;20263;-86
2023/04/11 02:36:44;;;;;;;27.03;4.53;;;8.80;99.90;;;;;;5038274;28;20239;-83
2023/04/11 02:39:12;;;;;;;24.43;4.63;;;8.80;99.90;;;;;;5042861;28;20236;-86
2023/04/11 02:41:40;;;;;;;19.50;3.60;;;8.80;99.90;;;;;;5042588;28;20266;-82
2023/04/11 02:44:11;;;;;;;24.93;4.53;;;8.70;99.90;;;;;;5032601;28;20197;-83
2023/04/11 02:46:38;;;;;;;16.90;3.40;;;8.70;99.90;;;;;;5025351;28;20208;-84
2023/04/11 02:49:10;;;;;;;16.23;3.33;;;8.60;99.90;;;;;;5045859;28;20273;-81
2023/04/11 02:51:37;;;;;;;10.17;2.60;;;8.50;99.90;;;;;;5031713;28;20675;-85
2023/04/11 02:54:05;;;;;;;12.57;3.33;;;8.60;99.90;;;;;;5022279;28;20243;-84
2023/04/11 02:56:33;;;;;;;17.00;3.07;;;8.50;99.90;;;;;;5029636;28;20214;-83
2023/04/11 02:59:00;;;;;;;13.97;2.33;;;8.60;99.90;;;;;;5042238;28;20227;-83
2023/04/11 03:01:28;;;;;;;11.67;3.00;;;8.60;99.90;;;;;;5042818;28;20643;-83
2023/04/11 03:03:56;;;;;;;7.17;2.00;;;8.50;99.90;;;;;;5040391;28;20209;-86
2023/04/11 03:06:23;;;;;;;9.80;2.37;;;8.60;99.90;;;;;;5053201;28;20218;-83
2023/04/11 03:08:51;;;;;;;11.17;2.03;;;8.60;99.90;;;;;;5028935;28;20204;-83
2023/04/11 03:11:18;;;;;;;8.63;2.37;;;8.70;99.90;;;;;;5021908;28;20216;-84
2023/04/11 03:13:46;;;;;;;9.33;2.20;;;8.70;99.90;;;;;;5043531;28;20251;-83
2023/04/11 03:16:13;;;;;;;7.60;1.97;;;8.70;99.90;;;;;;5040627;28;20598;-85
2023/04/11 03:18:40;;;;;;;9.70;1.80;;;8.80;99.90;;;;;;5028798;28;20212;-85
2023/04/11 03:21:10;;;;;;;7.90;2.27;;;8.80;99.90;;;;;;5029990;28;20296;-84
2023/04/11 03:23:37;;;;;;;9.63;2.10;;;8.80;99.90;;;;;;5035406;28;20296;-83
2023/04/11 03:26:07;;;;;;;15.33;2.70;;;8.80;99.90;;;;;;5043261;28;20214;-84
2023/04/11 03:28:34;;;;;;;10.03;2.50;;;8.80;99.90;;;;;;5057517;28;20240;-83
2023/04/11 03:31:01;;;;;;;5.37;2.20;;;8.80;99.90;;;;;;5047811;28;20204;-82
2023/04/11 03:33:28;;;;;;;11.33;2.03;;;8.80;99.90;;;;;;5034577;28;20646;-83
2023/04/11 03:35:54;;;;;;;7.60;2.60;;;9.00;99.90;;;;;;5031432;28;20200;-83
2023/04/11 03:38:22;;;;;;;13.27;2.57;;;8.90;99.90;;;;;;5049541;28;20633;-83
2023/04/11 03:40:49;;;;;;;10.33;2.83;;;8.90;99.90;;;;;;5045104;28;20238;-83
2023/04/11 03:43:17;;;;;;;7.17;1.80;;;8.90;99.90;;;;;;5040421;28;20211;-84
2023/04/11 03:45:46;;;;;;;11.47;2.53;;;8.90;99.90;;;;;;5054632;28;20537;-85
2023/04/11 03:48:13;;;;;;;8.10;2.40;;;8.90;99.90;;;;;;5030848;28;20263;-84
2023/04/11 03:50:40;;;;;;;7.10;1.80;;;8.90;99.90;;;;;;5031573;28;20216;-84
2023/04/11 03:53:08;;;;;;;14.47;2.30;;;8.90;99.90;;;;;;5041154;28;20630;-85
2023/04/11 03:55:35;;;;;;;5.93;1.90;;;8.90;99.90;;;;;;5046614;28;20300;-84
2023/04/11 03:58:02;;;;;;;9.23;2.00;;;8.90;99.90;;;;;;5029288;28;20212;-85
2023/04/11 04:00:32;;;;;;;13.23;2.10;;;8.80;99.90;;;;;;5036319;28;20228;-85
2023/04/11 04:02:59;;;;;;;6.47;2.07;;;8.90;99.90;;;;;;5023853;28;20320;-85
2023/04/11 04:05:26;;;;;;;7.67;1.90;;;8.80;99.90;;;;;;5032169;28;20558;-85
2023/04/11 04:07:53;;;;;;;8.83;2.30;;;8.80;99.90;;;;;;5029431;28;20295;-84
2023/04/11 04:10:21;;;;;;;9.73;2.03;;;8.70;99.90;;;;;;5048860;28;20300;-85
2023/04/11 04:12:48;;;;;;;7.27;2.00;;;8.80;99.90;;;;;;5032663;28;20298;-85
2023/04/11 04:15:15;;;;;;;5.90;2.20;;;8.90;99.90;;;;;;5030149;28;20684;-84
2023/04/11 04:17:42;;;;;;;8.00;2.20;;;8.90;99.90;;;;;;5054162;28;20762;-85
2023/04/11 04:20:16;;;;;;;10.40;2.10;;;8.90;99.90;;;;;;5029492;28;20325;-84
2023/04/11 04:22:47;;;;;;;12.27;2.40;;;8.90;99.90;;;;;;5029059;28;20208;-84
2023/04/11 04:25:18;;;;;;;10.77;2.20;;;8.90;99.90;;;;;;5030390;28;20279;-84
2023/04/11 04:27:46;;;;;;;7.37;1.93;;;8.90;99.90;;;;;;5031234;28;20597;-83
2023/04/11 04:30:14;;;;;;;5.43;1.90;;;8.90;99.90;;;;;;5028958;28;20289;-85
2023/04/11 04:32:42;;;;;;;9.73;2.50;;;8.90;99.90;;;;;;5035679;28;20248;-85
2023/04/11 04:35:15;;;;;;;8.17;2.30;;;8.90;99.90;;;;;;5031471;28;20256;-84
2023/04/11 04:37:46;;;;;;;7.47;2.03;;;8.90;99.90;;;;;;5035321;28;20222;-82
2023/04/11 04:40:14;;;;;;;8.43;2.17;;;9.00;99.90;;;;;;5024048;28;20635;-84
2023/04/11 04:42:42;;;;;;;14.10;2.57;;;8.90;99.90;;;;;;5040675;28;20497;-84
2023/04/11 04:45:14;;;;;;;7.30;1.90;;;8.90;99.90;;;;;;5033890;28;20270;-86
2023/04/11 04:47:41;;;;;;;8.27;2.33;;;9.00;99.90;;;;;;5021928;28;20664;-84
2023/04/11 04:50:09;;;;;;;9.57;2.00;;;9.00;99.90;;;;;;5026307;28;20332;-84
2023/04/11 04:52:36;;;;;;;8.87;1.73;;;9.00;99.90;;;;;;5019558;28;20265;-85
2023/04/11 04:55:04;;;;;;;10.60;2.40;;;9.00;99.90;;;;;;5026412;28;20206;-88
2023/04/11 04:57:31;;;;;;;8.70;1.80;;;9.00;99.90;;;;;;5026323;28;20190;-86
2023/04/11 04:59:59;;;;;;;7.67;2.03;;;9.00;99.90;;;;;;5034794;28;20328;-84
2023/04/11 05:02:26;;;;;;;6.90;1.90;;;9.00;99.90;;;;;;5033754;28;20231;-85
2023/04/11 05:05:02;;;;;;;12.23;2.40;;;9.00;99.90;;;;;;5035529;28;20199;-82
2023/04/11 05:07:29;;;;;;;11.83;2.40;;;9.00;99.90;;;;;;5029663;28;20210;-83
2023/04/11 05:09:56;;;;;;;6.50;2.00;;;8.90;99.90;;;;;;5031537;28;20229;-84
2023/04/11 05:12:26;;;;;;;4.30;1.60;;;8.90;99.90;;;;;;5025757;28;20571;-83
2023/04/11 05:14:54;;;;;;;10.27;2.30;;;8.90;99.90;;;;;;5035168;28;20244;-83
2023/04/11 05:17:22;;;;;;;8.57;1.93;;;8.80;99.90;;;;;;5029360;28;20240;-83
2023/04/11 05:19:51;;;;;;;9.50;2.13;;;8.90;99.90;;;;;;5042407;28;20241;-85
2023/04/11 05:22:19;;;;;;;11.50;2.93;;;8.90;99.90;;;;;;5034795;28;20216;-84
2023/04/11 05:24:47;;;;;;;6.80;2.13;;;8.90;99.90;;;;;;5030087;28;20310;-83
2023/04/11 05:27:13;;;;;;;10.27;2.30;;;8.90;99.90;;;;;;5043287;28;20240;-85
2023/04/11 05:29:44;;;;;;;8.80;1.93;;;8.90;99.90;;;;;;5063198;28;20205;-83
2023/04/11 05:32:11;;;;;;;11.07;1.77;;;8.90;99.90;;;;;;5042678;28;20276;-85
2023/04/11 05:34:53;;;;;;;8.70;2.27;;;8.90;99.90;;;;;;5061675;28;20182;-85
2023/04/11 05:37:23;;;;;;;7.07;1.67;;;8.90;99.90;;;;;;5043373;28;20202;-83
2023/04/11 05:39:51;;;;;;;10.67;2.63;;;9.00;99.90;;;;;;5064909;28;20228;-83
2023/04/11 05:42:18;;;;;;;9.47;1.90;;;8.90;99.90;;;;;;5048151;28;20217;-83
2023/04/11 05:44:45;;;;;;;11.27;2.00;;;8.90;99.90;;;;;;5063630;28;20205;-85
2023/04/11 05:47:12;;;;;;;10.57;1.80;;;8.90;99.90;;;;;;5051911;28;20235;-83
2023/04/11 05:49:38;;;;;;;10.77;1.90;;;8.90;99.90;;;;;;5041284;28;20233;-82
2023/04/11 05:52:06;;;;;;;8.70;2.33;;;8.80;99.90;;;;;;5040833;28;20446;-83
2023/04/11 05:54:34;;;;;;;9.07;1.80;;;9.00;99.90;;;;;;5059467;28;20193;-84
2023/04/11 05:57:02;;;;;;;6.43;2.53;;;9.00;99.90;;;;;;5035164;28;20225;-81
2023/04/11 05:59:30;;;;;;;9.63;2.67;;;8.90;99.90;;;;;;5043379;28;20225;-83
2023/04/11 06:01:58;;;;;;;9.20;1.80;;;8.90;99.90;;;;;;5044330;28;20231;-83
2023/04/11 06:04:25;;;;;;;8.10;2.10;;;8.90;99.90;;;;;;5045556;28;20201;-82
2023/04/11 06:06:52;;;;;;;7.70;2.27;;;8.90;99.90;;;;;;5051058;28;20221;-83
2023/04/11 06:09:19;;;;;;;8.07;1.97;;;8.70;99.90;;;;;;5043935;28;20202;-82
2023/04/11 06:11:46;;;;;;;6.27;2.00;;;8.70;99.90;;;;;;5056687;28;20205;-82
2023/04/11 06:14:13;;;;;;;6.73;1.60;;;8.70;99.90;;;;;;5061547;28;20186;-84
2023/04/11 06:16:40;;;;;;;6.90;1.60;;;8.60;99.90;;;;;;5043981;28;20200;-82
2023/04/11 06:19:07;;;;;;;9.53;1.80;;;8.60;99.90;;;;;;5036950;28;20274;-77
2023/04/11 06:21:35;;;;;;;9.77;1.80;;;8.70;99.90;;;;;;5050752;28;20236;-81
2023/04/11 06:24:04;;;;;;;8.07;1.97;;;8.70;99.90;;;;;;5033889;28;20252;-83
2023/04/11 06:26:31;;;;;;;10.10;2.23;;;8.80;99.90;;;;;;5037220;28;20602;-81
2023/04/11 06:28:58;;;;;;;6.17;1.63;;;8.80;99.90;;;;;;5054538;28;20213;-82
2023/04/11 06:31:25;;;;;;;6.77;1.90;;;9.00;99.90;;;;;;5052804;28;20199;-81
2023/04/11 06:33:53;;;;;;;10.50;1.67;;;9.20;99.90;;;;;;5032076;28;20224;-80
2023/04/11 06:36:20;;;;;;;8.53;2.10;;;9.50;99.90;;;;;;5038380;28;20604;-81
2023/04/11 06:38:48;;;;;;;8.47;2.60;;;9.50;99.90;;;;;;5034479;28;20232;-83
2023/04/11 06:41:15;;;;;;;12.57;2.43;;;9.60;99.90;;;;;;5046628;28;20392;-83
2023/04/11 06:43:41;;;;;;;8.57;2.00;;;9.90;99.90;;;;;;5025061;28;20395;-82
2023/04/11 06:46:08;;;;;;;8.67;1.60;;;9.90;99.90;;;;;;5041454;28;20790;-83
2023/04/11 06:48:35;;;;;;;5.73;1.67;;;10.30;99.90;;;;;;5043137;28;20315;-82
2023/04/11 06:51:02;;;;;;;7.70;1.53;;;10.30;99.90;;;;;;5032200;28;20295;-83
2023/04/11 06:53:28;;;;;;;6.43;2.03;;;10.30;99.90;;;;;;5045746;28;20605;-84
2023/04/11 06:55:55;;;;;;;9.37;1.90;;;10.50;99.90;;;;;;5045114;28;20204;-83
2023/04/11 06:58:22;;;;;;;8.23;2.13;;;10.80;99.90;;;;;;5042761;28;20205;-83
2023/04/11 07:00:50;;;;;;;9.50;1.80;;;11.50;99.90;;;;;;5028225;28;20410;-83
2023/04/11 07:03:17;;;;;;;6.03;1.60;;;12.00;99.90;;;;;;5026002;28;20284;-84
2023/04/11 07:05:44;;;;;;;8.10;2.00;;;12.50;99.90;;;;;;5045274;28;20231;-84
2023/04/11 07:08:10;;;;;;;16.90;2.40;;;13.10;99.90;;;;;;5043941;28;20236;-85
2023/04/11 07:10:37;;;;;;;9.40;1.73;;;13.20;99.90;;;;;;5024173;28;20725;-84
2023/04/11 07:13:05;;;;;;;8.77;2.10;;;13.40;99.90;;;;;;5024465;28;20313;-85
2023/04/11 07:15:32;;;;;;;9.63;1.80;;;13.50;99.90;;;;;;5024453;28;20251;-82
2023/04/11 07:17:59;;;;;;;9.50;1.90;;;13.70;99.90;;;;;;5046724;28;20257;-82
2023/04/11 07:20:26;;;;;;;5.97;1.57;;;13.80;99.90;;;;;;5037563;28;20233;-87
2023/04/11 07:22:55;;;;;;;8.05;2.00;;;13.60;99.90;;;;;;5026694;28;20201;-85
2023/04/11 07:25:26;;;;;;;8.97;2.27;;;13.70;99.90;;;;;;5024303;28;20294;-84
2023/04/11 07:27:53;;;;;;;9.93;1.60;;;13.50;99.90;;;;;;5030101;28;20694;-85
2023/04/11 07:30:20;;;;;;;9.13;1.90;;;13.50;99.90;;;;;;5025477;28;20216;-84
2023/04/11 07:32:46;;;;;;;7.63;1.75;;;13.50;99.90;;;;;;5042000;28;20321;-87
2023/04/11 07:35:13;;;;;;;6.40;2.00;;;13.60;99.90;;;;;;5027922;28;20669;-83
2023/04/11 07:37:41;;;;;;;6.35;1.50;;;14.10;99.90;;;;;;5046397;28;20320;-85
2023/04/11 07:40:12;;;;;;;9.60;1.67;;;14.20;99.90;;;;;;5045278;28;20213;-83
2023/04/11 07:42:40;;;;;;;11.45;2.05;;;14.40;99.90;;;;;;5046602;28;20592;-84
2023/04/11 07:45:07;;;;;;;7.95;1.83;;;14.20;99.90;;;;;;5027529;28;20590;-84
2023/04/11 07:47:34;;;;;;;7.75;2.20;;;14.20;99.90;;;;;;5027033;28;20220;-86
2023/04/11 07:50:02;;;;;;;7.47;1.88;;;14.30;99.90;;;;;;5025420;28;20237;-85
2023/04/11 07:52:29;;;;;;;8.38;1.77;;;14.70;99.90;;;;;;5040939;28;20209;-83
2023/04/11 07:54:55;;;;;;;7.63;2.10;;;14.60;99.90;;;;;;5046864;28;20646;-83
2023/04/11 07:57:24;;;;;;;6.05;1.88;;;14.70;99.90;;;;;;5049044;28;20201;-84
2023/04/11 07:59:51;;;;;;;6.97;2.00;;;14.60;99.90;;;;;;5035572;28;20220;-83
2023/04/11 08:02:19;;;;;;;8.38;1.70;;;14.80;99.90;;;;;;5041786;28;20231;-83
2023/04/11 08:04:46;;;;;;;7.13;2.10;;;14.80;99.90;;;;;;5029895;28;20213;-85
2023/04/11 08:07:14;;;;;;;11.02;1.90;;;15.00;99.90;;;;;;5034453;28;20216;-85
2023/04/11 08:09:41;;;;;;;9.57;1.60;;;14.80;99.90;;;;;;5021755;28;20569;-84
2023/04/11 08:12:08;;;;;;;8.30;1.73;;;15.10;99.90;;;;;;5029482;28;20290;-83
2023/04/11 08:14:36;;;;;;;8.20;1.73;;;15.40;99.90;;;;;;5027961;28;20223;-83
2023/04/11 08:17:03;;;;;;;6.38;1.73;;;15.10;99.90;;;;;;5044519;28;20248;-84
2023/04/11 08:19:40;;;;;;;7.07;1.70;;;14.80;99.90;;;;;;5023702;28;20277;-81
2023/04/11 08:22:07;;;;;;;10.60;1.80;;;14.70;99.90;;;;;;5026517;28;20747;-84
2023/04/11 08:24:33;;;;;;;9.70;1.52;;;14.70;99.90;;;;;;5028436;28;20225;-84
2023/04/11 08:27:00;;;;;;;6.47;2.00;;;14.80;99.90;;;;;;5027333;28;20198;-83
2023/04/11 08:29:28;;;;;;;8.90;1.67;;;14.60;99.90;;;;;;5023758;28;20260;-84
2023/04/11 08:31:55;;;;;;;8.70;1.90;;;14.20;99.90;;;;;;5021738;28;20305;-83
2023/04/11 08:34:22;;;;;;;5.63;1.67;;;13.80;99.90;;;;;;5021940;28;20213;-82
2023/04/11 08:36:52;;;;;;;10.30;1.90;;;13.30;99.90;;;;;;5030931;28;20631;-82
2023/04/11 08:39:22;;;;;;;15.10;3.07;;;12.90;99.90;;;;;;5038327;28;20734;-82
2023/04/11 08:41:52;;;;;;;10.97;2.20;;;12.70;99.90;;;;;;5026890;28;20248;-83
2023/04/11 08:44:20;;;;;;;10.13;1.93;;;12.50;99.90;;;;;;5030353;28;20296;-84
2023/04/11 08:46:47;;;;;;;8.60;1.90;;;12.60;99.90;;;;;;5025196;28;20310;-84
2023/04/11 08:49:14;;;;;;;7.50;1.60;;;13.00;99.90;;;;;;5038063;28;20256;-85
2023/04/11 08:51:44;;;;;;;8.10;2.33;;;13.50;99.90;;;;;;5042201;28;20242;-85
2023/04/11 08:54:14;;;;;;;7.47;1.50;;;14.00;99.90;;;;;;5022609;28;20570;-86
2023/04/11 08:56:41;;;;;;;10.33;2.37;;;14.30;99.90;;;;;;5026152;28;20226;-85
2023/04/11 08:59:09;;;;;;;5.55;1.80;;;14.50;99.90;;;;;;5026254;28;20211;-86
2023/04/11 09:01:39;;;;;;;9.00;1.50;;;14.70;99.90;;;;;;5029305;28;20669;-84
2023/04/11 09:04:07;;;;;;;6.53;1.75;;;14.90;99.90;;;;;;5042396;28;20710;-85
2023/04/11 09:06:34;;;;;;;6.25;1.67;;;15.10;99.90;;;;;;5035278;28;20630;-85
2023/04/11 09:09:07;;;;;;;6.00;1.65;;;15.20;99.90;;;;;;5020961;28;20253;-85
2023/04/11 09:11:54;;;;;;;8.50;1.50;;;15.20;99.90;;;;;;5039760;28;20202;-85
2023/04/11 09:14:24;;;;;;;5.60;1.38;;;15.00;99.90;;;;;;5028818;28;20210;-84
2023/04/11 09:16:58;;;;;;;6.65;1.52;;;14.70;99.90;;;;;;5025775;28;20708;-84
2023/04/11 09:19:27;;;;;;;5.35;1.58;;;14.80;99.90;;;;;;5044122;28;20683;-86
2023/04/11 09:21:59;;;;;;;6.20;1.67;;;14.50;99.90;;;;;;5031042;28;20272;-84
2023/04/11 09:24:29;;;;;;;7.90;1.30;;;14.70;99.90;;;;;;5026158;28;20743;-84
2023/04/11 09:27:11;;;;;;;3.22;1.52;;;14.80;99.90;;;;;;5030688;28;20260;-80
2023/04/11 09:29:46;;;;;;;5.63;1.40;;;14.60;99.90;;;;;;5036501;28;20198;-85
2023/04/11 09:32:32;;;;;;;8.43;1.48;;;14.30;99.90;;;;;;5036263;28;20274;-86
2023/04/11 09:35:23;;;;;;;7.83;1.80;;;14.00;99.90;;;;;;5034377;28;20421;-86
2023/04/11 09:37:55;;;;;;;4.10;1.53;;;13.90;99.90;;;;;;5044092;28;20207;-85
2023/04/11 09:40:25;;;;;;;5.70;1.80;;;13.70;99.90;;;;;;5033438;28;20689;-86
2023/04/11 09:42:57;;;;;;;6.00;1.60;;;13.40;99.90;;;;;;5029898;28;20236;-85
2023/04/11 09:45:26;;;;;;;7.07;1.47;;;13.30;99.90;;;;;;5034400;28;20655;-87
2023/04/11 09:47:55;;;;;;;8.10;1.53;;;13.30;99.90;;;;;;5028726;28;20260;-85
2023/04/11 09:50:26;;;;;;;7.53;1.40;;;13.20;99.90;;;;;;5036903;28;20234;-84
2023/04/11 09:52:54;;;;;;;5.90;1.83;;;13.10;99.90;;;;;;5028373;28;20196;-86
2023/04/11 09:55:25;;;;;;;12.00;2.53;;;13.00;99.90;;;;;;5031752;28;20205;-85
2023/04/11 09:57:55;;;;;;;8.47;1.80;;;12.90;99.90;;;;;;5026320;28;20202;-84
2023/04/11 10:00:23;;;;;;;8.53;1.80;;;12.90;99.90;;;;;;5032913;28;20224;-86
2023/04/11 10:02:52;;;;;;;6.83;1.80;;;13.20;99.90;;;;;;5030084;28;20317;-85
2023/04/11 10:05:24;;;;;;;4.87;1.63;;;13.30;99.90;;;;;;5029377;28;20530;-85
2023/04/11 10:08:00;;;;;;;9.90;1.60;;;13.40;99.90;;;;;;5028327;28;20249;-88
2023/04/11 10:10:27;;;;;;;12.10;1.60;;;13.40;99.90;;;;;;5023398;28;20285;-84
2023/04/11 10:12:53;;;;;;;4.90;1.33;;;13.50;99.90;;;;;;5027202;28;20202;-85
2023/04/11 10:15:21;;;;;;;6.23;1.37;;;13.70;99.90;;;;;;5021980;28;20217;-85
2023/04/11 10:18:08;;;;;;;6.23;1.67;;;13.90;99.90;;;;;;5023535;28;20222;-85
2023/04/11 10:20:39;;;;;;;5.27;1.30;;;14.10;99.90;;;;;;5029647;28;20260;-87
2023/04/11 10:23:06;;;;;;;8.07;1.60;;;14.20;99.90;;;;;;5031218;28;20202;-84
2023/04/11 10:25:49;;;;;;;7.27;1.50;;;14.30;99.90;;;;;;5023910;28;20218;-84
2023/04/11 10:28:41;;;;;;;4.77;1.67;;;14.50;99.90;;;;;;5041963;28;20293;-84
2023/04/11 10:31:15;;;;;;;4.67;1.20;;;14.50;99.90;;;;;;5048010;28;20656;-84
2023/04/11 10:34:20;;;;;;;5.77;1.90;;;14.30;99.90;;;;;;5025264;28;20221;-85
2023/04/11 10:37:03;;;;;;;5.43;1.60;;;14.50;99.90;;;;;;5032475;28;20282;-85
2023/04/11 10:39:48;;;;;;;5.67;1.70;;;14.50;99.90;;;;;;5022619;28;20201;-85
2023/04/11 10:42:38;;;;;;;3.27;0.97;;;14.50;99.90;;;;;;5047850;28;20249;-84
2023/04/11 10:45:31;;;;;;;5.43;1.50;;;14.30;99.90;;;;;;5053677;28;20210;-85
2023/04/11 10:48:10;;;;;;;3.17;1.50;;;14.40;99.90;;;;;;5040462;28;20229;-84
2023/04/11 10:50:42;;;;;;;6.87;1.30;;;14.50;99.90;;;;;;5039270;28;20291;-86
2023/04/11 10:53:35;;;;;;;3.23;0.90;;;14.50;99.90;;;;;;5038940;28;20676;-86
2023/04/11 10:56:08;;;;;;;4.40;1.45;;;14.40;99.90;;;;;;5034780;28;20916;-85
2023/04/11 10:58:38;;;;;;;5.70;1.33;;;14.30;99.90;;;;;;5035335;28;20231;-86
2023/04/11 11:01:16;;;;;;;6.27;1.33;;;14.10;99.90;;;;;;5028326;28;20657;-85
2023/04/11 11:04:03;;;;;;;5.57;1.53;;;13.90;99.90;;;;;;5048533;28;20232;-84
2023/04/11 11:06:36;;;;;;;4.80;1.50;;;13.80;99.90;;;;;;5051848;28;20604;-87
2023/04/11 11:09:22;;;;;;;4.73;1.60;;;13.80;99.90;;;;;;5034292;28;20197;-84
2023/04/11 11:12:11;;;;;;;6.80;2.30;;;13.70;99.90;;;;;;5032687;28;20623;-85
2023/04/11 11:14:43;;;;;;;4.53;1.90;;;13.70;99.90;;;;;;5029056;28;20585;-85
2023/04/11 11:17:14;;;;;;;4.13;1.37;;;13.50;99.90;;;;;;5028567;28;20562;-85
2023/04/11 11:19:46;;;;;;;6.00;1.57;;;13.40;99.90;;;;;;5033136;28;20240;-86
2023/04/11 11:22:25;;;;;;;3.90;1.20;;;13.50;99.90;;;;;;5038433;28;20229;-84
2023/04/11 11:24:52;;;;;;;4.53;1.20;;;13.50;99.90;;;;;;5045251;28;20233;-86
2023/04/11 11:27:23;;;;;;;7.10;1.33;;;13.70;99.90;;;;;;5043290;28;20189;-84
2023/04/11 11:29:51;;;;;;;9.23;1.30;;;13.80;99.90;;;;;;5040272;28;20205;-84
2023/04/11 11:32:26;;;;;;;8.00;1.37;;;13.80;99.90;;;;;;5042305;28;20197;-83
2023/04/11 11:34:56;;;;;;;8.03;1.50;;;13.90;99.90;;;;;;5028473;28;20192;-84
2023/04/11 11:37:23;;;;;;;6.50;1.53;;;13.90;99.90;;;;;;5045161;28;20200;-84
2023/04/11 11:39:52;;;;;;;4.07;1.13;;;13.80;99.90;;;;;;5044307;28;20265;-83
2023/04/11 11:42:20;;;;;;;3.50;0.93;;;13.90;99.90;;;;;;5038410;28;20218;-84
2023/04/11 11:44:47;;;;;;;3.63;1.30;;;13.90;99.90;;;;;;5040205;28;20428;-84
2023/04/11 11:47:14;;;;;;;2.60;1.30;;;13.90;99.90;;;;;;5043105;28;20288;-84
2023/04/11 11:49:48;;;;;;;5.47;1.70;;;14.10;99.90;;;;;;5021754;28;20591;-87
2023/04/11 11:52:35;;;;;;;6.73;1.90;;;14.20;99.90;;;;;;5041837;28;20200;-85
2023/04/11 11:55:05;;;;;;;4.40;1.60;;;14.20;99.90;;;;;;5019901;28;20509;-85
2023/04/11 11:57:36;;;;;;;8.70;1.90;;;14.30;99.90;;;;;;5042042;28;20289;-84
2023/04/11 12:00:09;;;;;;;6.07;1.80;;;14.40;99.90;;;;;;5041985;28;20658;-84
2023/04/11 12:02:38;;;;;;;3.10;1.40;;;14.60;99.90;;;;;;5038899;28;20292;-85
2023/04/11 12:05:06;;;;;;;6.47;1.30;;;14.70;99.90;;;;;;5044101;28;20193;-84
2023/04/11 12:07:36;;;;;;;4.50;1.10;;;14.70;99.90;;;;;;5038917;28;20220;-84
2023/04/11 12:10:07;;;;;;;5.83;1.77;;;14.80;99.90;;;;;;5025043;28;20201;-84
2023/04/11 12:12:38;;;;;;;6.07;1.50;;;15.00;99.90;;;;;;5044830;28;20204;-85
2023/04/11 12:15:13;;;;;;;6.13;1.20;;;15.10;99.90;;;;;;5046163;28;20198;-86
2023/04/11 12:17:40;;;;;;;4.97;1.17;;;15.20;99.90;;;;;;5028184;28;20213;-87
2023/04/11 12:20:09;;;;;;;4.97;1.30;;;15.50;99.90;;;;;;5043342;28;20282;-85
2023/04/11 12:22:36;;;;;;;3.30;1.23;;;15.50;98.00;;;;;;5033403;28;20230;-85
2023/04/11 12:25:11;;;;;;;6.80;1.30;;;15.40;97.10;;;;;;5027859;28;20202;-84
2023/04/11 12:27:40;;;;;;;4.00;1.27;;;15.30;95.80;;;;;;5034120;28;20201;-85
2023/04/11 12:30:10;;;;;;;6.23;1.30;;;15.20;96.10;;;;;;5048000;28;20201;-86
2023/04/11 12:32:37;;;;;;;3.57;1.23;;;15.30;96.50;;;;;;5048540;28;20218;-86
2023/04/11 12:35:05;;;;;;;5.90;1.80;;;15.50;96.40;;;;;;5049792;28;20210;-85
2023/04/11 12:37:35;;;;;;;3.37;1.40;;;15.60;95.90;;;;;;5036009;28;20201;-85
2023/04/11 12:40:11;;;;;;;3.60;1.60;;;15.70;95.20;;;;;;5046557;28;20209;-85
2023/04/11 12:42:44;;;;;;;8.77;1.77;;;15.70;95.70;;;;;;5044987;28;20228;-85
2023/04/11 12:45:22;;;;;;;6.93;1.30;;;15.80;95.80;;;;;;5028694;28;20224;-85
2023/04/11 12:47:49;;;;;;;6.23;1.40;;;15.80;95.80;;;;;;5048131;28;20708;-85
2023/04/11 12:50:16;;;;;;;4.60;1.37;;;16.00;96.40;;;;;;5050000;28;20209;-85
2023/04/11 12:52:45;;;;;;;4.90;1.57;;;15.90;96.00;;;;;;5052017;28;20213;-84
2023/04/11 12:55:12;;;;;;;4.27;1.67;;;16.00;95.60;;;;;;5029475;28;20264;-85
2023/04/11 12:57:40;;;;;;;4.93;1.27;;;15.90;96.20;;;;;;5046063;28;20198;-80
2023/04/11 13:00:09;;;;;;;4.25;1.40;;;16.20;94.90;;;;;;5032509;28;20216;-85